Time;durP1;ratioP1;P1;durP2;ratioP2;P2;SDS_P1;SDS_P2;PMS_P1;PMS_P2;Temp;Humidity;BMP_temperature;BMP_pressure;BME280_temperature;BME280_humidity;BME280_pressure;Samples;Min_cycle;Max_cycle;Signal;HPM_P1;HPM_P2
2021/06/29 00:01:17;;;;;;;5.00;2.50;;;20.30;66.90;;;22.93;54.93;101131.22;5058478;27;97020;-71
2021/06/29 00:04:14;;;;;;;1.90;1.80;;;20.20;66.90;;;22.96;55.13;101138.66;5061604;27;96813;-71
2021/06/29 00:07:14;;;;;;;3.17;2.65;;;20.20;66.90;;;23.07;54.40;101134.88;5054384;27;96607;-71
2021/06/29 00:10:22;;;;;;;3.10;2.40;;;20.20;66.90;;;23.16;54.68;101129.13;5094171;27;98106;-71
2021/06/29 00:13:22;;;;;;;2.92;1.55;;;20.20;67.00;;;23.14;54.51;101132.22;5140847;27;96522;-71
2021/06/29 00:16:21;;;;;;;2.03;1.52;;;20.20;67.00;;;23.04;54.84;101140.28;5143830;27;96682;-71
2021/06/29 00:19:22;;;;;;;3.95;2.55;;;20.20;66.90;;;22.98;54.69;101128.94;5058800;27;96748;-71
2021/06/29 00:22:19;;;;;;;2.00;1.70;;;20.20;66.90;;;22.96;55.07;101138.66;5062283;27;99247;-71
2021/06/29 00:25:45;;;;;;;4.38;3.38;;;20.20;67.00;;;23.17;54.79;101139.69;5142878;27;96662;-71
2021/06/29 00:28:57;;;;;;;10.90;4.43;;;20.20;67.10;;;23.15;54.50;101133.81;5121590;27;96666;-71
2021/06/29 00:31:58;;;;;;;2.33;2.00;;;20.20;67.10;;;23.09;54.54;101131.75;5051552;27;97027;-71
2021/06/29 00:34:56;;;;;;;2.03;1.90;;;20.20;67.10;;;23.03;54.60;101145.00;5120761;27;97202;-71
2021/06/29 00:37:55;;;;;;;4.15;2.75;;;20.20;67.20;;;22.97;55.09;101148.44;5061847;27;96760;-71
2021/06/29 00:40:53;;;;;;;6.55;3.40;;;20.20;67.30;;;22.98;55.36;101155.47;5139313;27;96776;-71
2021/06/29 00:43:54;;;;;;;2.55;2.35;;;20.20;67.20;;;23.00;55.10;101150.41;5139895;27;96571;-71
2021/06/29 00:46:54;;;;;;;4.63;2.53;;;20.30;67.30;;;23.02;55.11;101148.88;5139150;27;96695;-71
2021/06/29 00:49:52;;;;;;;5.40;2.58;;;20.20;67.20;;;23.05;55.17;101147.34;5144433;27;96623;-71
2021/06/29 00:52:52;;;;;;;2.40;1.70;;;20.30;67.20;;;23.00;55.13;101147.69;5143693;27;97006;-71
2021/06/29 00:55:51;;;;;;;4.72;2.45;;;20.30;67.30;;;22.96;55.60;101150.38;5139949;27;96781;-72
2021/06/29 00:58:50;;;;;;;3.88;2.83;;;20.30;67.20;;;23.00;55.47;101145.75;5143105;27;96678;-71
2021/06/29 01:01:51;;;;;;;1.77;1.65;;;20.30;67.30;;;22.98;55.14;101142.59;5139454;27;96936;-71
2021/06/29 01:04:50;;;;;;;3.55;1.90;;;20.20;67.20;;;23.01;54.76;101136.38;5139944;27;96591;-71
2021/06/29 01:07:49;;;;;;;3.03;1.77;;;20.20;67.30;;;22.98;55.35;101144.53;5057788;27;97251;-71
2021/06/29 01:10:46;;;;;;;2.05;1.80;;;20.20;67.40;;;22.95;55.55;101139.81;5058403;27;97093;-71
2021/06/29 01:13:47;;;;;;;5.00;3.15;;;20.20;67.40;;;22.96;55.38;101144.13;5139935;27;96880;-72
2021/06/29 01:16:52;;;;;;;3.25;2.03;;;20.20;67.40;;;22.93;55.02;101134.72;5111633;27;96753;-71
2021/06/29 01:19:53;;;;;;;9.93;3.17;;;20.20;67.50;;;22.93;55.26;101142.13;5138465;27;96895;-71
2021/06/29 01:22:55;;;;;;;5.07;2.25;;;20.20;67.50;;;22.90;55.52;101135.47;5036320;27;96784;-71
2021/06/29 01:26:10;;;;;;;38.72;3.88;;;20.20;67.50;;;22.90;55.38;101129.22;5141578;27;96822;-72
2021/06/29 01:29:11;;;;;;;7.32;2.97;;;20.20;67.60;;;22.85;55.63;101138.53;5140814;27;96602;-71
2021/06/29 01:32:20;;;;;;;5.75;4.22;;;20.10;67.60;;;22.76;56.04;101140.78;5094792;27;97011;-71
2021/06/29 01:35:19;;;;;;;5.40;2.28;;;20.10;67.70;;;22.79;55.77;101136.50;5141022;27;96613;-72
2021/06/29 01:38:22;;;;;;;3.42;2.60;;;20.10;67.70;;;22.79;55.67;101126.38;5145686;27;97578;-71
2021/06/29 01:41:21;;;;;;;4.72;2.83;;;20.10;67.70;;;22.90;55.69;101123.75;5063304;27;96822;-72
2021/06/29 01:44:23;;;;;;;2.60;2.40;;;20.20;67.80;;;22.94;55.61;101122.63;5140070;27;96719;-72
2021/06/29 01:47:26;;;;;;;24.80;2.88;;;20.20;67.70;;;22.94;55.81;101124.59;5142279;27;96723;-72
2021/06/29 01:50:25;;;;;;;1.52;1.40;;;20.20;67.70;;;22.97;55.74;101121.09;5118143;27;96784;-72
2021/06/29 01:53:24;;;;;;;6.28;2.78;;;20.20;67.70;;;22.97;55.74;101107.44;5141323;27;96632;-72
2021/06/29 01:56:27;;;;;;;3.85;3.08;;;20.20;67.70;;;23.03;55.82;101105.91;5144012;27;97254;-71
2021/06/29 01:59:26;;;;;;;6.47;2.45;;;20.20;67.70;;;23.03;55.62;101105.91;5138917;27;96717;-71
2021/06/29 02:02:25;;;;;;;7.97;3.83;;;20.30;67.80;;;23.13;55.44;101103.31;5141688;27;96573;-72
2021/06/29 02:05:25;;;;;;;13.38;2.47;;;20.30;67.70;;;23.15;55.27;101101.00;5142308;27;96840;-72
2021/06/29 02:08:32;;;;;;;1.48;1.38;;;20.20;67.70;;;23.23;55.14;101091.69;5100568;27;96792;-71
2021/06/29 02:11:32;;;;;;;2.78;1.52;;;20.30;67.80;;;23.14;55.35;101090.44;5136206;27;96600;-71
2021/06/29 02:14:43;;;;;;;4.70;2.85;;;20.20;67.70;;;23.06;55.77;101088.75;5119393;27;97173;-71
2021/06/29 02:17:42;;;;;;;4.95;3.45;;;20.30;67.80;;;23.05;55.46;101098.13;5143469;27;97607;-72
2021/06/29 02:20:40;;;;;;;2.60;2.35;;;20.30;67.90;;;23.00;55.70;101095.75;5141937;27;96789;-71
2021/06/29 02:23:54;;;;;;;7.90;3.22;;;20.30;67.90;;;22.99;55.75;101089.50;5118147;27;97201;-71
2021/06/29 02:26:52;;;;;;;2.25;1.80;;;20.30;67.90;;;23.02;55.87;101087.94;5141742;27;96470;-71
2021/06/29 02:29:52;;;;;;;2.42;1.58;;;20.30;67.90;;;23.03;56.21;101087.59;5143206;27;96986;-72
2021/06/29 02:32:51;;;;;;;9.43;3.45;;;20.30;68.00;;;23.08;55.72;101083.69;5131190;27;96614;-72
2021/06/29 02:36:00;;;;;;;2.13;1.67;;;20.30;67.90;;;23.11;55.75;101080.25;5095770;27;97621;-72
2021/06/29 02:39:00;;;;;;;5.00;3.58;;;20.30;68.00;;;23.09;56.04;101079.81;5058924;27;97351;-71
2021/06/29 02:42:03;;;;;;;2.22;2.03;;;20.30;68.00;;;23.05;55.93;101084.47;5143958;27;96691;-71
2021/06/29 02:45:05;;;;;;;4.25;2.90;;;20.30;68.00;;;23.08;56.29;101089.16;5137112;27;97089;-72
2021/06/29 02:48:15;;;;;;;9.32;2.42;;;20.30;68.00;;;23.08;56.11;101084.50;5117596;27;96686;-71
2021/06/29 02:51:28;;;;;;;5.55;3.70;;;20.30;68.10;;;23.10;55.69;101084.13;5116897;27;96750;-71
2021/06/29 02:54:38;;;;;;;2.17;2.05;;;20.30;68.20;;;23.06;56.42;101083.28;5117123;27;97059;-71
2021/06/29 02:57:37;;;;;;;3.05;2.63;;;20.30;68.20;;;23.08;56.16;101089.97;5141802;27;96509;-71
2021/06/29 03:00:38;;;;;;;5.03;2.75;;;20.30;68.20;;;23.09;56.06;101088.00;5055116;27;97298;-72
2021/06/29 03:03:37;;;;;;;10.23;2.53;;;20.30;68.20;;;23.11;56.24;101088.44;5135612;27;96982;-71
2021/06/29 03:06:47;;;;;;;6.20;2.67;;;20.30;68.20;;;23.11;55.86;101085.72;5117388;27;96950;-71
2021/06/29 03:09:46;;;;;;;9.75;2.90;;;20.30;68.20;;;23.05;56.18;101079.78;5140629;27;97020;-71
2021/06/29 03:12:45;;;;;;;8.32;3.85;;;20.30;68.30;;;23.00;56.49;101087.53;5142814;27;96703;-71
2021/06/29 03:15:44;;;;;;;3.45;2.58;;;20.30;68.30;;;23.03;56.29;101086.78;5141358;27;97204;-71
2021/06/29 03:18:45;;;;;;;4.05;3.17;;;20.30;68.30;;;23.02;56.26;101071.53;5050727;27;97389;-71
2021/06/29 03:21:44;;;;;;;5.22;2.83;;;20.30;68.40;;;23.03;56.74;101079.38;5120625;27;96717;-72
2021/06/29 03:24:43;;;;;;;4.38;2.67;;;20.30;68.40;;;22.98;56.47;101062.53;5140352;27;96692;-71
2021/06/29 03:27:56;;;;;;;8.68;4.75;;;20.30;68.40;;;22.87;56.51;101070.63;5135336;27;96731;-72
2021/06/29 03:30:55;;;;;;;2.83;2.33;;;20.30;68.40;;;22.83;57.01;101072.53;5143879;27;97034;-71
2021/06/29 03:33:54;;;;;;;9.93;3.83;;;20.20;68.40;;;22.84;56.67;101081.53;5142935;27;98395;-71
2021/06/29 03:36:53;;;;;;;8.50;3.22;;;20.20;68.40;;;22.81;56.48;101074.06;5142997;27;96835;-72
2021/06/29 03:39:52;;;;;;;9.20;3.28;;;20.10;68.50;;;22.83;56.31;101058.09;5143340;27;96672;-71
2021/06/29 03:42:52;;;;;;;6.38;2.65;;;20.20;68.60;;;22.84;56.56;101054.97;5141513;27;96895;-71
2021/06/29 03:45:52;;;;;;;10.48;4.90;;;20.10;68.60;;;22.99;56.26;101061.38;5121193;27;96663;-71
2021/06/29 03:48:53;;;;;;;5.82;2.08;;;20.10;68.60;;;22.95;56.56;101066.03;5055694;27;96654;-71
2021/06/29 03:51:53;;;;;;;4.68;2.67;;;20.20;68.60;;;22.92;56.61;101073.00;5141331;27;96653;-71
2021/06/29 03:54:52;;;;;;;3.90;2.58;;;20.20;68.50;;;22.90;56.88;101066.38;5122004;27;96633;-72
2021/06/29 03:57:51;;;;;;;4.20;2.55;;;20.20;68.60;;;22.94;56.45;101067.19;5138535;27;97698;-72
2021/06/29 04:00:47;;;;;;;3.30;2.08;;;20.20;68.70;;;22.95;56.58;101066.78;5064115;27;96772;-72
2021/06/29 04:03:46;;;;;;;8.32;1.63;;;20.20;68.70;;;22.91;56.56;101071.44;5142280;27;96676;-71
2021/06/29 04:06:41;;;;;;;2.97;2.72;;;20.20;68.60;;;22.91;56.44;101067.94;5061990;27;96633;-72
2021/06/29 04:09:46;;;;;;;3.05;1.85;;;20.10;69.20;;;22.89;56.87;101056.59;5109580;27;96771;-72
2021/06/29 04:12:41;;;;;;;2.67;1.85;;;20.10;68.60;;;22.87;56.52;101048.75;5062768;27;96689;-72
2021/06/29 04:15:40;;;;;;;2.25;1.48;;;20.10;68.60;;;22.89;56.73;101046.44;5142831;27;96969;-72
2021/06/29 04:18:40;;;;;;;2.35;1.05;;;20.20;68.80;;;22.96;56.73;101037.53;5142239;27;97189;-72
2021/06/29 04:21:40;;;;;;;4.68;3.28;;;20.20;68.80;;;23.01;56.61;101045.38;5142544;27;96635;-72
2021/06/29 04:24:36;;;;;;;3.70;3.05;;;20.20;69.30;;;23.02;56.62;101055.94;5062566;27;97796;-72
2021/06/29 04:27:35;;;;;;;3.60;2.60;;;20.20;68.70;;;23.03;56.35;101043.06;5139141;27;96632;-72
2021/06/29 04:30:34;;;;;;;5.68;2.83;;;20.20;68.70;;;23.09;55.91;101041.53;5137714;27;96881;-72
2021/06/29 04:33:33;;;;;;;6.03;3.08;;;20.20;68.70;;;23.10;56.07;101054.03;5122096;27;96774;-72
2021/06/29 04:36:32;;;;;;;5.20;3.03;;;20.20;68.70;;;23.09;55.86;101052.47;5038639;27;97102;-72
2021/06/29 04:39:41;;;;;;;5.15;2.97;;;20.20;68.70;;;23.08;56.19;101059.91;5096173;27;96584;-72
2021/06/29 04:42:40;;;;;;;7.30;2.47;;;20.20;68.80;;;22.98;56.30;101059.78;5139525;27;96577;-72
2021/06/29 04:45:50;;;;;;;3.72;3.08;;;20.20;68.70;;;23.00;56.61;101052.00;5115489;27;97352;-72
2021/06/29 04:49:01;;;;;;;12.38;3.70;;;20.10;68.90;;;23.00;56.45;101049.28;5030212;27;96610;-72
2021/06/29 04:52:00;;;;;;;3.42;2.03;;;20.10;69.00;;;23.04;56.15;101053.63;5143711;27;96493;-72
2021/06/29 04:55:04;;;;;;;3.67;2.63;;;20.10;69.00;;;23.12;56.63;101049.00;5143560;27;97094;-72
2021/06/29 04:58:04;;;;;;;3.67;2.92;;;20.10;69.00;;;23.16;56.40;101042.41;5058353;27;96884;-72
2021/06/29 05:00:58;;;;;;;13.13;2.80;;;20.20;69.10;;;23.33;55.54;101049.19;5060972;27;97428;-73
2021/06/29 05:03:59;;;;;;;9.45;4.28;;;20.20;69.00;;;23.26;56.14;101044.44;5144549;27;96674;-72
2021/06/29 05:07:00;;;;;;;7.07;3.80;;;20.20;69.00;;;23.25;56.02;101044.84;5143811;27;97012;-72
2021/06/29 05:10:01;;;;;;;6.53;1.88;;;20.30;69.10;;;23.31;56.07;101043.31;5140889;27;96477;-72
2021/06/29 05:13:04;;;;;;;12.27;3.53;;;20.30;69.00;;;23.33;56.17;101050.00;5140344;27;97633;-72
2021/06/29 05:16:05;;;;;;;14.80;3.35;;;20.30;69.00;;;23.37;56.10;101050.00;5053600;27;96848;-72
2021/06/29 05:19:06;;;;;;;6.35;3.67;;;20.30;69.00;;;23.43;55.92;101053.97;5141493;27;96594;-71
2021/06/29 05:22:06;;;;;;;6.80;2.80;;;20.30;69.00;;;23.47;55.71;101043.84;5142171;27;96516;-71
2021/06/29 05:25:08;;;;;;;5.63;3.30;;;20.30;69.00;;;23.50;55.40;101048.53;5140279;27;96600;-71
2021/06/29 05:28:08;;;;;;;8.68;2.05;;;20.40;68.90;;;23.59;55.70;101057.19;5142287;27;96641;-71
2021/06/29 05:31:06;;;;;;;9.30;3.15;;;20.40;68.90;;;23.57;55.48;101051.31;5057685;27;97916;-72
2021/06/29 05:34:06;;;;;;;4.30;2.92;;;20.50;68.90;;;23.72;55.42;101055.72;5046780;27;96773;-72
2021/06/29 05:37:06;;;;;;;8.10;3.47;;;20.50;68.90;;;23.88;55.13;101058.97;5137657;27;96650;-71
2021/06/29 05:40:13;;;;;;;3.38;3.05;;;20.60;68.80;;;23.97;54.85;101052.75;5144140;27;96568;-72
2021/06/29 05:43:11;;;;;;;13.30;2.75;;;20.70;68.70;;;24.08;54.95;101053.63;5137504;27;96798;-72
2021/06/29 05:46:24;;;;;;;3.33;1.33;;;20.80;68.60;;;24.15;54.53;101056.38;5136775;27;97208;-72
2021/06/29 05:49:25;;;;;;;6.95;4.45;;;20.90;68.50;;;24.06;55.39;101055.16;5139326;27;96669;-72
2021/06/29 05:52:25;;;;;;;9.68;7.07;;;20.90;68.40;;;23.96;55.39;101058.63;5139833;27;97041;-72
2021/06/29 05:55:19;;;;;;;17.30;4.03;;;20.90;68.40;;;23.89;55.68;101066.81;5061875;27;97098;-72
2021/06/29 05:58:27;;;;;;;7.63;4.40;;;20.90;68.50;;;23.91;55.84;101061.75;5140985;27;97537;-72
2021/06/29 06:01:25;;;;;;;8.05;3.40;;;20.90;68.40;;;23.91;55.58;101064.47;5141291;27;96700;-72
2021/06/29 06:04:41;;;;;;;10.60;4.15;;;20.90;68.50;;;23.76;56.40;101062.78;5123090;27;97034;-72
2021/06/29 06:07:39;;;;;;;9.48;2.90;;;20.90;68.50;;;23.81;55.77;101056.16;5059593;27;96869;-71
2021/06/29 06:10:41;;;;;;;2.20;2.08;;;20.80;68.60;;;23.72;56.26;101059.25;5053316;27;96727;-71
2021/06/29 06:13:39;;;;;;;4.03;2.72;;;20.80;68.70;;;23.89;55.74;101066.81;5144287;27;96762;-71
2021/06/29 06:16:46;;;;;;;8.38;3.65;;;20.80;68.70;;;23.92;55.71;101059.78;5098494;27;96936;-72
2021/06/29 06:19:45;;;;;;;7.60;2.75;;;20.80;68.60;;;23.96;55.70;101059.41;5138336;27;96725;-71
2021/06/29 06:22:50;;;;;;;5.57;2.38;;;20.90;68.70;;;24.05;55.77;101062.59;5141408;27;96610;-72
2021/06/29 06:26:06;;;;;;;9.48;3.47;;;20.90;68.60;;;24.03;55.52;101058.66;5119566;27;96961;-71
2021/06/29 06:29:13;;;;;;;4.55;2.70;;;20.90;68.70;;;24.01;55.65;101061.00;5093310;27;96713;-72
2021/06/29 06:32:12;;;;;;;9.82;2.88;;;20.90;68.70;;;24.05;55.57;101051.66;5112105;27;96652;-71
2021/06/29 06:35:12;;;;;;;10.45;2.33;;;20.90;68.80;;;23.81;56.18;101059.72;5060459;27;97209;-72
2021/06/29 06:38:18;;;;;;;3.42;2.20;;;20.90;68.80;;;23.81;56.37;101051.50;5094925;27;96866;-71
2021/06/29 06:41:17;;;;;;;5.03;2.95;;;20.80;69.40;;;24.06;55.89;101053.22;5141303;27;96577;-71
2021/06/29 06:44:27;;;;;;;9.00;3.67;;;20.90;68.70;;;24.28;55.35;101052.13;5114485;27;96664;-71
2021/06/29 06:47:25;;;;;;;8.10;2.30;;;21.10;68.70;;;24.38;55.66;101056.06;5059815;27;97548;-71
2021/06/29 06:50:24;;;;;;;18.05;3.15;;;21.10;68.50;;;24.41;55.24;101058.84;5141538;27;96712;-71
2021/06/29 06:53:22;;;;;;;14.75;3.08;;;21.20;68.40;;;24.47;55.10;101051.00;5142317;27;96856;-72
2021/06/29 06:56:21;;;;;;;7.13;3.92;;;21.30;68.40;;;24.66;54.54;101043.28;5142747;27;96776;-71
2021/06/29 06:59:20;;;;;;;17.60;3.85;;;21.40;68.20;;;24.71;54.88;101047.56;5139548;27;96698;-72
2021/06/29 07:02:18;;;;;;;12.23;4.07;;;21.50;68.20;;;24.85;54.72;101040.16;5065246;27;97256;-72
2021/06/29 07:05:18;;;;;;;4.35;2.58;;;21.50;68.00;;;25.07;54.03;101049.97;5143121;27;96472;-71
2021/06/29 07:08:16;;;;;;;2.42;1.98;;;21.70;67.90;;;25.30;54.18;101046.88;5144737;27;97004;-72
2021/06/29 07:11:17;;;;;;;2.83;2.08;;;21.80;67.70;;;25.33;53.87;101048.81;5056257;27;96566;-71
2021/06/29 07:14:15;;;;;;;6.43;3.35;;;21.90;67.60;;;25.21;54.25;101069.19;5141565;27;96720;-72
2021/06/29 07:17:14;;;;;;;5.95;4.10;;;21.90;67.60;;;24.93;55.21;101060.94;5142278;27;96592;-71
2021/06/29 07:20:15;;;;;;;7.30;3.95;;;21.90;67.70;;;24.96;55.47;101062.91;5142114;27;96562;-71
2021/06/29 07:22:56;;;;;;;18.90;4.28;;;21.90;67.90;;;24.97;55.46;101058.19;5077748;27;97147;-72
2021/06/29 07:25:38;;;;;;;3.45;2.30;;;21.90;67.80;;;24.94;55.11;101058.97;5067865;27;96908;-72
2021/06/29 07:28:19;;;;;;;4.53;2.40;;;21.90;67.80;;;24.89;55.25;101064.84;5059393;27;96773;-71
2021/06/29 07:31:01;;;;;;;6.75;3.53;;;21.90;67.80;;;25.08;54.72;101057.03;5056295;27;96972;-71
2021/06/29 07:33:46;;;;;;;5.10;3.53;;;21.90;67.80;;;25.39;54.44;101050.78;5065570;27;96803;-71
2021/06/29 07:36:27;;;;;;;2.38;2.20;;;22.10;67.70;;;25.72;54.04;101058.59;5055808;27;97205;-72
2021/06/29 07:39:08;;;;;;;8.85;2.83;;;22.30;67.60;;;26.02;53.61;101056.19;5053393;27;97145;-72
2021/06/29 07:41:49;;;;;;;13.05;3.30;;;22.50;67.40;;;26.04;53.54;101054.63;5108482;27;96628;-72
2021/06/29 07:44:32;;;;;;;20.75;5.43;;;22.60;67.10;;;26.07;53.41;101053.81;5066116;27;96544;-72
2021/06/29 07:47:12;;;;;;;2.50;1.88;;;22.80;67.10;;;25.99;53.83;101059.72;5054776;27;96744;-71
2021/06/29 07:49:54;;;;;;;6.15;2.78;;;22.80;66.90;;;26.00;53.48;101061.28;5055087;27;96772;-71
2021/06/29 07:52:36;;;;;;;13.15;5.22;;;22.80;66.90;;;25.95;54.26;101056.97;5092818;27;97030;-71
2021/06/29 07:55:17;;;;;;;9.07;4.82;;;22.80;66.90;;;26.09;53.64;101061.63;5054052;27;96731;-72
2021/06/29 07:57:58;;;;;;;4.15;2.97;;;22.80;66.90;;;26.16;53.66;101067.91;5062375;27;96805;-72
2021/06/29 08:00:39;;;;;;;8.70;3.45;;;22.90;66.90;;;26.10;54.29;101063.19;5082036;27;96834;-71
2021/06/29 08:03:21;;;;;;;13.13;4.40;;;23.00;66.90;;;26.02;54.33;101058.94;5043435;27;96788;-72
2021/06/29 08:06:06;;;;;;;6.75;2.33;;;22.90;66.90;;;25.92;54.12;101062.50;5064784;27;96680;-72
2021/06/29 08:08:47;;;;;;;4.07;2.08;;;22.90;67.00;;;25.73;55.19;101055.47;5065507;27;97071;-72
2021/06/29 08:11:28;;;;;;;14.45;4.28;;;22.90;67.10;;;25.75;55.10;101046.81;5046285;27;96739;-72
2021/06/29 08:14:21;;;;;;;4.25;3.38;;;22.80;67.10;;;25.65;55.53;101053.13;5079203;27;96955;-72
2021/06/29 08:17:06;;;;;;;3.42;1.83;;;22.80;67.20;;;25.53;55.45;101039.81;5063777;27;96631;-71
2021/06/29 08:19:48;;;;;;;3.15;1.75;;;22.80;67.30;;;25.44;55.52;101050.38;5045714;27;96829;-72
2021/06/29 08:22:29;;;;;;;7.30;3.88;;;22.70;67.30;;;25.44;55.75;101044.13;5062427;27;96803;-72
2021/06/29 08:25:12;;;;;;;7.07;3.05;;;22.60;67.50;;;25.54;55.27;101043.31;5051931;27;96536;-72
2021/06/29 08:27:53;;;;;;;3.67;2.70;;;22.60;67.60;;;25.61;55.37;101044.09;5105483;27;97009;-72
2021/06/29 08:30:35;;;;;;;7.90;3.95;;;22.60;67.60;;;25.58;55.43;101052.34;5065149;27;97161;-72
2021/06/29 08:33:20;;;;;;;5.47;1.67;;;22.60;67.60;;;25.56;55.14;101051.94;5092522;27;96668;-72
2021/06/29 08:36:01;;;;;;;3.05;2.25;;;22.60;67.60;;;25.57;55.25;101050.75;5073092;27;97092;-72
2021/06/29 08:38:44;;;;;;;10.40;3.08;;;22.60;67.60;;;25.50;55.25;101048.03;5083752;27;97080;-71
2021/06/29 08:41:26;;;;;;;8.48;3.78;;;22.60;67.70;;;25.43;55.66;101056.28;5065010;27;96676;-71
2021/06/29 08:44:07;;;;;;;7.03;3.95;;;22.50;67.80;;;25.38;55.34;101053.94;5058995;27;97318;-72
2021/06/29 08:46:48;;;;;;;7.40;3.60;;;22.40;67.80;;;25.26;55.55;101048.84;5090127;27;97105;-72
2021/06/29 08:49:29;;;;;;;13.00;3.60;;;22.40;67.90;;;25.23;56.03;101047.69;5063925;27;97047;-71
2021/06/29 08:52:13;;;;;;;4.72;1.50;;;22.40;68.00;;;25.14;56.08;101060.94;5019927;28;96704;-72
2021/06/29 08:55:12;;;;;;;3.33;2.28;;;22.30;68.00;;;25.11;56.07;101058.22;5051601;27;97394;-72
2021/06/29 08:57:53;;;;;;;4.50;2.63;;;22.20;68.00;;;25.13;55.73;101067.59;5085061;27;98561;-72
2021/06/29 09:00:35;;;;;;;3.78;2.42;;;22.20;68.00;;;25.15;55.58;101061.75;5124976;27;97107;-72
2021/06/29 09:03:16;;;;;;;10.32;4.28;;;22.20;68.00;;;25.20;55.51;101058.63;5075895;27;97420;-72
2021/06/29 09:05:57;;;;;;;9.55;1.90;;;22.20;67.90;;;25.24;55.39;101067.66;5047721;27;97140;-72
2021/06/29 09:08:42;;;;;;;2.67;2.25;;;22.30;68.00;;;25.24;55.55;101065.69;5062058;27;97162;-72
2021/06/29 09:11:24;;;;;;;4.07;2.70;;;22.30;68.10;;;25.19;55.46;101074.31;5054463;27;96701;-72
2021/06/29 09:14:10;;;;;;;5.22;1.58;;;22.20;68.00;;;25.20;55.66;101066.88;5108424;27;96908;-72
2021/06/29 09:16:52;;;;;;;8.55;2.97;;;22.20;68.00;;;25.13;56.00;101067.59;5106003;27;96620;-72
2021/06/29 09:19:38;;;;;;;4.97;2.47;;;22.20;68.00;;;25.01;55.80;101056.25;5069282;27;96851;-72
2021/06/29 09:22:31;;;;;;;13.68;4.38;;;22.20;68.10;;;24.94;56.29;101062.53;5039909;27;97419;-72
2021/06/29 09:25:28;;;;;;;2.83;1.90;;;22.10;68.20;;;24.84;56.44;101068.75;5061564;27;96777;-72
2021/06/29 09:28:17;;;;;;;2.67;2.47;;;22.00;68.30;;;24.74;56.25;101064.03;5062329;27;96766;-71
2021/06/29 09:31:03;;;;;;;5.70;2.15;;;21.90;68.40;;;24.83;56.08;101067.19;5101184;27;97281;-72
2021/06/29 09:33:47;;;;;;;9.77;3.00;;;21.90;68.40;;;24.92;55.85;101070.34;5022017;27;96813;-71
2021/06/29 09:36:33;;;;;;;3.15;2.90;;;21.90;68.30;;;24.81;55.93;101069.53;5058585;27;96976;-72
2021/06/29 09:39:17;;;;;;;2.47;2.28;;;21.90;68.30;;;24.73;56.36;101062.47;5068225;27;96790;-72
2021/06/29 09:42:06;;;;;;;4.05;3.70;;;21.90;68.30;;;24.71;56.10;101070.31;5064911;27;97178;-72
2021/06/29 09:44:47;;;;;;;9.48;3.50;;;21.90;68.50;;;24.75;56.00;101073.03;5064673;27;96901;-72
2021/06/29 09:47:29;;;;;;;1.73;1.52;;;21.80;68.40;;;24.78;56.27;101070.31;5056615;27;96811;-72
2021/06/29 09:50:46;;;;;;;4.38;3.38;;;21.80;68.40;;;24.85;56.00;101075.81;5066962;27;97499;-72
2021/06/29 09:53:33;;;;;;;6.70;2.55;;;21.90;68.60;;;25.08;55.75;101061.75;5091930;27;96876;-72
2021/06/29 09:56:19;;;;;;;12.20;3.53;;;21.90;68.30;;;25.52;54.09;101060.19;5055264;27;96604;-72
2021/06/29 09:59:01;;;;;;;1.83;1.70;;;22.10;67.90;;;25.73;54.20;101054.66;5056192;27;96822;-72
2021/06/29 10:01:48;;;;;;;1.50;1.30;;;22.30;67.70;;;26.06;53.27;101051.44;5063713;27;96744;-72
2021/06/29 10:04:31;;;;;;;1.88;0.93;;;22.50;67.40;;;26.37;53.12;101051.34;5065957;27;97123;-72
2021/06/29 10:07:19;;;;;;;3.75;1.77;;;22.70;67.10;;;26.71;52.65;101044.09;5043605;27;96712;-72
2021/06/29 10:10:18;;;;;;;2.25;1.95;;;23.00;66.80;;;26.87;52.13;101051.84;5059715;27;96663;-72
2021/06/29 10:13:15;;;;;;;9.35;2.78;;;23.20;66.60;;;26.86;52.41;101051.06;5054304;27;97253;-73
2021/06/29 10:15:57;;;;;;;9.25;2.65;;;23.40;66.60;;;26.82;53.10;101049.53;5106411;27;96679;-73
2021/06/29 10:18:48;;;;;;;5.88;2.17;;;23.40;66.50;;;27.06;52.30;101060.34;5090003;27;96867;-72
2021/06/29 10:21:33;;;;;;;2.38;1.58;;;23.50;66.40;;;27.52;51.63;101055.28;5082897;27;97010;-72
2021/06/29 10:24:20;;;;;;;8.05;3.67;;;23.70;66.20;;;27.75;51.07;101060.94;5105012;27;97126;-72
2021/06/29 10:27:07;;;;;;;9.00;3.05;;;24.00;65.90;;;27.91;51.05;101064.72;5088183;27;96617;-73
2021/06/29 10:29:49;;;;;;;5.28;1.23;;;24.20;65.60;;;27.88;51.47;101057.28;5055302;27;97153;-73
2021/06/29 10:32:33;;;;;;;1.95;1.15;;;24.30;65.50;;;27.66;52.20;101053.16;5063783;27;96619;-73
2021/06/29 10:35:15;;;;;;;6.20;1.98;;;24.30;65.50;;;27.64;52.07;101057.50;5081899;27;96954;-73
2021/06/29 10:37:56;;;;;;;2.75;1.80;;;24.30;65.70;;;27.86;51.97;101054.16;5054946;27;96790;-74
2021/06/29 10:40:37;;;;;;;1.80;1.70;;;24.30;65.60;;;27.90;52.00;101052.13;5053308;27;97221;-74
2021/06/29 10:43:19;;;;;;;2.90;1.27;;;24.40;65.60;;;27.80;52.32;101050.28;5084784;27;97262;-72
2021/06/29 10:46:00;;;;;;;2.47;0.98;;;24.40;65.60;;;27.76;52.32;101057.00;5063383;27;97081;-72
2021/06/29 10:48:44;;;;;;;1.05;0.77;;;24.40;65.60;;;27.97;52.00;101057.59;5072960;27;96751;-72
2021/06/29 10:51:39;;;;;;;4.93;1.35;;;24.50;65.60;;;28.26;51.56;101064.31;5050562;27;96639;-72
2021/06/29 10:54:47;;;;;;;0.73;0.70;;;24.60;65.60;;;28.02;52.26;101061.84;5060662;27;97581;-73
2021/06/29 10:57:42;;;;;;;1.35;1.25;;;24.60;65.60;;;27.86;52.68;101061.66;5067270;27;96865;-73
2021/06/29 11:00:34;;;;;;;2.25;1.08;;;24.50;65.80;;;28.45;51.38;101065.69;5079121;27;96655;-73
2021/06/29 11:03:15;;;;;;;1.48;1.17;;;24.60;65.70;;;28.57;51.20;101057.63;5060120;27;97279;-73
2021/06/29 11:06:03;;;;;;;1.27;1.15;;;24.90;65.30;;;28.32;51.94;101053.63;5060900;27;96798;-73
2021/06/29 11:08:49;;;;;;;1.08;0.70;;;24.90;65.10;;;28.12;52.53;101061.72;5107579;27;97193;-73
2021/06/29 11:11:33;;;;;;;2.38;1.15;;;24.90;65.10;;;28.23;52.35;101047.81;5075353;27;96602;-73
2021/06/29 11:14:30;;;;;;;1.20;0.82;;;24.90;65.10;;;28.59;51.55;101046.97;5085180;27;97121;-73
2021/06/29 11:17:12;;;;;;;0.82;0.82;;;25.10;65.00;;;28.59;51.56;101046.97;5051869;27;97178;-73
2021/06/29 11:20:14;;;;;;;1.58;1.20;;;25.20;64.90;;;28.52;51.94;101052.56;5062121;27;96800;-73
2021/06/29 11:23:00;;;;;;;0.95;0.95;;;25.10;65.10;;;28.96;51.11;101046.81;5062661;27;97056;-73
2021/06/29 11:25:50;;;;;;;1.70;1.25;;;25.30;64.90;;;29.48;50.10;101051.47;5066527;27;96670;-73
2021/06/29 11:29:03;;;;;;;0.65;0.57;;;25.60;64.70;;;29.90;49.46;101041.63;5048085;27;96889;-72
2021/06/29 11:31:44;;;;;;;1.40;1.20;;;25.90;64.30;;;30.21;49.18;101034.69;5061677;27;96705;-73
2021/06/29 11:34:28;;;;;;;0.68;0.63;;;26.10;64.10;;;30.57;48.78;101039.06;5059323;27;97352;-73
2021/06/29 11:37:10;;;;;;;1.65;0.93;;;26.40;64.10;;;30.92;48.43;101052.84;5051758;27;97274;-73
2021/06/29 11:40:01;;;;;;;1.40;0.98;;;26.70;64.00;;;31.28;47.85;101048.06;5053712;27;96820;-73
2021/06/29 11:43:14;;;;;;;0.63;0.63;;;27.00;63.80;;;31.54;47.68;101044.22;5061541;27;97216;-73
2021/06/29 11:45:54;;;;;;;13.07;2.28;;;27.30;63.60;;;31.51;48.15;101042.28;5079049;27;97129;-72
2021/06/29 11:48:42;;;;;;;0.50;0.43;;;27.40;63.20;;;31.33;48.85;101032.88;5071199;27;96741;-72
2021/06/29 11:51:52;;;;;;;1.33;1.00;;;27.50;63.10;;;30.91;49.83;101036.69;5106595;27;96558;-72
2021/06/29 11:54:40;;;;;;;1.30;1.02;;;27.50;63.70;;;30.53;50.53;101032.00;5100322;27;96644;-72
2021/06/29 11:57:26;;;;;;;1.20;1.10;;;27.40;63.40;;;30.29;51.35;101033.34;5065817;27;96667;-72
2021/06/29 12:00:26;;;;;;;2.78;0.68;;;27.20;63.60;;;30.02;51.94;101036.28;5071847;27;96637;-72
2021/06/29 12:03:12;;;;;;;1.42;0.35;;;27.00;63.90;;;29.82;51.98;101034.69;5056588;27;96653;-72
2021/06/29 12:05:53;;;;;;;10.90;1.45;;;26.90;64.20;;;29.65;52.63;101025.53;5107808;27;97196;-72
2021/06/29 12:08:35;;;;;;;1.95;1.05;;;26.70;64.40;;;29.54;52.40;101035.97;5082996;27;97124;-72